^^
Station Historical Data
 
Daily Summary for October 24, 2017 Units:  English    Metric   Both
« Previous Day
Next Day »
Daily Weekly Monthly Yearly Custom
  Current: High: Low: Average:
Temperature: 46.6 °F 49.5 °F 46.6 °F 48.4 °F
Dew Point: 44.8 °F 46.6 °F 44.8 °F 45.5 °F
Humidity: 93% 93% 86% 90%
Wind Speed: 8.1mph 11.5mph 0mph 3.8mph
Wind Gust: 8.1mph 11.5mph - -
WindWest - - WSW
Pressure: 29.5 in 29.5 in 29.5 in -
Precipitation: 0.02 in      
Historical Graphs
 
 
Tabular Data for October 24, 2017
Time Temperature Dew Point Pressure Wind Wind Speed Wind Gust Humidity Rainfall Rate (Hourly) solar Conditions
00:00 47.3 °F 45.3 °F 29.5 in WSW 1.2 mph 1.2 mph 93% 0 in WeatherDisplay:10.37 W/m2 RA
00:05 47.3 °F 45.3 °F 29.5 in West 1.2 mph 1.2 mph 93% 0 in WeatherDisplay:10.37 W/m2 RA
00:10 47.3 °F 45.3 °F 29.5 in Calm     93% 0 in WeatherDisplay:10.37 W/m2 OVC
00:15 47.3 °F 45.3 °F 29.5 in WSW 2.3 mph 2.3 mph 93% 0 in WeatherDisplay:10.37 W/m2 OVC
00:20 47.3 °F 45.3 °F 29.5 in SW 2.3 mph 2.3 mph 93% 0 in WeatherDisplay:10.37 W/m2 OVC
00:25 47.3 °F 45.3 °F 29.5 in SW 2 mph 2 mph 93% 0 in WeatherDisplay:10.37 W/m2 OVC
00:30 47.3 °F 45.3 °F 29.5 in SW 1.2 mph 1.2 mph 93% 0 in WeatherDisplay:10.37 W/m2 OVC
00:35 47.3 °F 45.3 °F 29.5 in West 2.3 mph 2.3 mph 93% 0 in WeatherDisplay:10.37 W/m2 OVC
00:40 47.3 °F 45.3 °F 29.5 in SW 2.3 mph 2.3 mph 93% 0 in WeatherDisplay:10.37 W/m2 OVC
00:45 47.5 °F 45.7 °F 29.5 in West 2.3 mph 2.3 mph 93% 0 in WeatherDisplay:10.37 W/m2 OVC
00:50 47.5 °F 45.7 °F 29.5 in SSW 3.5 mph 3.5 mph 93% 0 in WeatherDisplay:10.37 W/m2 OVC
00:55 47.5 °F 45.7 °F 29.5 in West 2.9 mph 2.9 mph 93% 0 in WeatherDisplay:10.37 W/m2 OVC
01:00 47.5 °F 45.7 °F 29.5 in South 2.3 mph 2.3 mph 93% 0 in WeatherDisplay:10.37 W/m2 OVC
01:05 47.5 °F 45.7 °F 29.5 in SW 2 mph 2 mph 93% 0 in WeatherDisplay:10.37 W/m2 OVC
01:10 47.5 °F 45.7 °F 29.5 in WSW 1.2 mph 1.3 mph 93% 0 in WeatherDisplay:10.37 W/m2 OVC
01:15 47.7 °F 45.1 °F 29.5 in West 3.5 mph 3.5 mph 91% 0 in WeatherDisplay:10.37 W/m2 OVC
01:20 47.7 °F 45.1 °F 29.5 in NW 3.5 mph 3.5 mph 91% 0 in WeatherDisplay:10.37 W/m2 OVC
01:25 48.4 °F 45.7 °F 29.5 in WNW 3.5 mph 3.5 mph 90% 0 in WeatherDisplay:10.37 W/m2 OVC
01:30 48.6 °F 45.1 °F 29.5 in NNW 4.6 mph 4.6 mph 88% 0 in WeatherDisplay:10.37 W/m2 OVC
01:35 48.9 °F 45.5 °F 29.5 in West 4.9 mph 4.9 mph 88% 0 in WeatherDisplay:10.37 W/m2 OVC
01:40 48.9 °F 45.5 °F 29.5 in NW 4.6 mph 4.6 mph 88% 0 in WeatherDisplay:10.37 W/m2 OVC
01:45 48.9 °F 45.5 °F 29.5 in West 4.6 mph 4.6 mph 88% 0 in WeatherDisplay:10.37 W/m2 OVC
01:50 49.3 °F 45.3 °F 29.5 in NNE 3.5 mph 3.5 mph 86% 0 in WeatherDisplay:10.37 W/m2 OVC
01:55 49.3 °F 45.3 °F 29.5 in West 2.9 mph 2.9 mph 86% 0 in WeatherDisplay:10.37 W/m2 OVC
02:00 49.3 °F 45.3 °F 29.5 in WSW 4.6 mph 4.6 mph 86% 0 in WeatherDisplay:10.37 W/m2 OVC
02:05 49.3 °F 45.3 °F 29.5 in North 3.5 mph 3.5 mph 86% 0 in WeatherDisplay:10.37 W/m2 OVC
02:10 49.3 °F 45.3 °F 29.5 in West 4.9 mph 4.9 mph 86% 0 in WeatherDisplay:10.37 W/m2 OVC
02:15 49.5 °F 45.3 °F 29.5 in WNW 2.3 mph 2.5 mph 86% 0 in WeatherDisplay:10.37 W/m2 OVC
02:20 49.5 °F 45.3 °F 29.5 in WNW 4.9 mph 4.9 mph 86% 0 in WeatherDisplay:10.37 W/m2 OVC
02:25 49.5 °F 45.3 °F 29.5 in West 2.3 mph 2.3 mph 86% 0 in WeatherDisplay:10.37 W/m2 OVC
02:30 49.5 °F 45.3 °F 29.5 in West 4 mph 4 mph 86% 0 in WeatherDisplay:10.37 W/m2 OVC
02:35 49.5 °F 45.3 °F 29.5 in NW 3.5 mph 3.5 mph 86% 0 in WeatherDisplay:10.37 W/m2 OVC
02:40 49.5 °F 45.3 °F 29.5 in North 2.3 mph 2.3 mph 86% 0 in WeatherDisplay:10.37 W/m2 OVC
02:45 49.3 °F 45.3 °F 29.5 in West 2.3 mph 2.3 mph 86% 0 in WeatherDisplay:10.37 W/m2 OVC
02:50 49.3 °F 45.9 °F 29.5 in West 5.8 mph 5.8 mph 88% 0 in WeatherDisplay:10.37 W/m2 OVC
02:56 48.9 °F 45.5 °F 29.5 in WNW 3.5 mph 3.5 mph 88% 0 in WeatherDisplay:10.37 W/m2 OVC
03:01 48.9 °F 45.5 °F 29.5 in SW 1.2 mph 1.2 mph 88% 0 in WeatherDisplay:10.37 W/m2 OVC
03:06 48.9 °F 45.5 °F 29.5 in West 3.5 mph 3.5 mph 88% 0 in WeatherDisplay:10.37 W/m2 OVC
03:11 48.9 °F 45.5 °F 29.5 in WNW 3.5 mph 3.5 mph 88% 0 in WeatherDisplay:10.37 W/m2 OVC
03:16 48.9 °F 45.5 °F 29.5 in WNW 4 mph 4 mph 88% 0 in WeatherDisplay:10.37 W/m2 OVC
03:21 48.9 °F 45.5 °F 29.5 in North 2.3 mph 2.3 mph 88% 0 in WeatherDisplay:10.37 W/m2 OVC
03:26 48.9 °F 45.5 °F 29.5 in WNW 3.5 mph 3.5 mph 88% 0 in WeatherDisplay:10.37 W/m2 OVC
03:31 48.9 °F 45.5 °F 29.5 in North 4.9 mph 4.9 mph 88% 0 in WeatherDisplay:10.37 W/m2 OVC
03:36 49.3 °F 45.3 °F 29.5 in WNW 4 mph 4 mph 86% 0 in WeatherDisplay:10.37 W/m2 OVC
03:46 49.3 °F 45.3 °F 29.5 in West 2.3 mph 3.8 mph 86% 0 in WeatherDisplay:10.37 W/m2 OVC
03:51 49.3 °F 45.9 °F 29.5 in WNW 8.1 mph 8.1 mph 88% 0 in WeatherDisplay:10.37 W/m2 OVC
04:01 49.3 °F 45.9 °F 29.5 in NNW 4.9 mph 4.9 mph 88% 0 in WeatherDisplay:10.37 W/m2 -RA
04:06 49.3 °F 45.9 °F 29.5 in West 4.6 mph 4.6 mph 88% 0 in WeatherDisplay:10.37 W/m2 -RA
04:11 49.3 °F 46.6 °F 29.5 in West 1.2 mph 1.3 mph 90% 0 in WeatherDisplay:10.37 W/m2 -RA
04:16 48.9 °F 46 °F 29.5 in WNW 2.3 mph 2.3 mph 90% 0 in WeatherDisplay:10.37 W/m2 -RA
04:21 48.9 °F 46.4 °F 29.5 in West 3.5 mph 3.5 mph 91% 0 in WeatherDisplay:10.37 W/m2 -RA
04:26 48.6 °F 46 °F 29.5 in WSW 3.5 mph 3.5 mph 91% 0 in WeatherDisplay:10.37 W/m2 -RA
04:31 48.6 °F 46 °F 29.5 in West 2.3 mph 2.3 mph 91% 0 in WeatherDisplay:10.37 W/m2 -RA
04:36 48.6 °F 46 °F 29.5 in SW 2.3 mph 2.3 mph 91% 0 in WeatherDisplay:10.37 W/m2 -RA
04:41 48.6 °F 46 °F 29.5 in West 2.3 mph 2.3 mph 91% 0 in WeatherDisplay:10.37 W/m2 -RA
04:46 48.4 °F 45.9 °F 29.5 in West 2.3 mph 2.3 mph 91% 0 in WeatherDisplay:10.37 W/m2 -RA
04:51 48.4 °F 46.4 °F 29.5 in West 3.5 mph 3.5 mph 93% 0.01 in WeatherDisplay:10.37 W/m2 -RA
04:56 48.2 °F 46.2 °F 29.5 in WNW 2.3 mph 2.3 mph 93% 0.01 in WeatherDisplay:10.37 W/m2 -RA
05:01 48.2 °F 46.2 °F 29.5 in South 3.5 mph 3.5 mph 93% 0.01 in WeatherDisplay:10.37 W/m2 -RA
05:06 48.2 °F 46.2 °F 29.5 in WSW 6.9 mph 6.9 mph 93% 0.01 in WeatherDisplay:10.37 W/m2 -RA
05:11 48.2 °F 46.2 °F 29.5 in WNW 4.6 mph 4.6 mph 93% 0.01 in WeatherDisplay:10.37 W/m2 -RA
05:16 48 °F 46 °F 29.5 in WSW 9.2 mph 9.2 mph 93% 0.01 in WeatherDisplay:10.37 W/m2 -RA
05:21 48 °F 46 °F 29.5 in WNW 3.5 mph 3.5 mph 93% 0.01 in WeatherDisplay:10.37 W/m2 -RA
05:26 47.7 °F 45.7 °F 29.5 in West 6.9 mph 6.9 mph 93% 0.01 in WeatherDisplay:10.37 W/m2 -RA
05:31 47.7 °F 45.7 °F 29.5 in WNW 9.2 mph 9.2 mph 93% 0.01 in WeatherDisplay:10.37 W/m2 -RA
05:36 47.7 °F 45.7 °F 29.5 in West 4.9 mph 4.9 mph 93% 0.01 in WeatherDisplay:10.37 W/m2 -RA
05:46 47.7 °F 45.7 °F 29.5 in WNW 5.8 mph 5.8 mph 93% 0.02 in WeatherDisplay:10.37 W/m2 -RA
05:51 47.3 °F 45.3 °F 29.5 in NNE 5.8 mph 5.8 mph 93% 0.01 in WeatherDisplay:10.37 W/m2 -RA
05:56 47.1 °F 45.1 °F 29.5 in WSW 10.4 mph 10.4 mph 93% 0.01 in WeatherDisplay:10.37 W/m2 -RA
06:01 46.9 °F 45 °F 29.5 in NNW 11.5 mph 11.5 mph 93% 0.01 in WeatherDisplay:10.37 W/m2 -RA
06:06 46.8 °F 44.8 °F 29.5 in WNW 3.5 mph 3.6 mph 93% 0.01 in WeatherDisplay:10.37 W/m2 -RA
06:11 46.6 °F 44.8 °F 29.5 in West 8.1 mph 8.1 mph 93% 0.01 in WeatherDisplay:10.37 W/m2 -RA
Juneau County Weather
Compliments of Weather Underground - 3 mb